sensor_id;sensor_type;location;lat;lon;timestamp;P1;durP1;ratioP1;P2;durP2;ratioP2
57609;SDS011;43435;46.186;9.024;2023-05-24T09:00:48;3.85;;;2.30;;
57609;SDS011;43435;46.186;9.024;2023-05-24T09:03:13;7.38;;;2.40;;
57609;SDS011;43435;46.186;9.024;2023-05-24T09:05:39;7.15;;;2.92;;
57609;SDS011;43435;46.186;9.024;2023-05-24T09:08:05;4.47;;;2.00;;
57609;SDS011;43435;46.186;9.024;2023-05-24T09:10:31;4.43;;;2.63;;
57609;SDS011;43435;46.186;9.024;2023-05-24T09:12:57;5.75;;;2.60;;
57609;SDS011;43435;46.186;9.024;2023-05-24T09:15:25;6.43;;;2.88;;
57609;SDS011;43435;46.186;9.024;2023-05-24T09:17:52;4.25;;;2.65;;
57609;SDS011;43435;46.186;9.024;2023-05-24T09:20:17;5.35;;;2.85;;
57609;SDS011;43435;46.186;9.024;2023-05-24T09:22:44;4.85;;;2.38;;
57609;SDS011;43435;46.186;9.024;2023-05-24T09:25:12;3.67;;;2.40;;
57609;SDS011;43435;46.186;9.024;2023-05-24T09:27:38;3.63;;;2.40;;
57609;SDS011;43435;46.186;9.024;2023-05-24T09:30:06;5.95;;;2.90;;
57609;SDS011;43435;46.186;9.024;2023-05-24T09:32:39;8.18;;;2.45;;
57609;SDS011;43435;46.186;9.024;2023-05-24T09:35:08;4.18;;;2.90;;
57609;SDS011;43435;46.186;9.024;2023-05-24T09:37:36;5.38;;;2.80;;
57609;SDS011;43435;46.186;9.024;2023-05-24T09:40:04;5.55;;;2.35;;
57609;SDS011;43435;46.186;9.024;2023-05-24T09:42:31;5.32;;;2.60;;
57609;SDS011;43435;46.186;9.024;2023-05-24T09:45:00;4.47;;;2.40;;
57609;SDS011;43435;46.186;9.024;2023-05-24T09:47:28;6.05;;;3.20;;
57609;SDS011;43435;46.186;9.024;2023-05-24T09:49:54;5.28;;;2.22;;
57609;SDS011;43435;46.186;9.024;2023-05-24T09:52:20;4.80;;;2.38;;
57609;SDS011;43435;46.186;9.024;2023-05-24T09:54:45;4.50;;;2.33;;
57609;SDS011;43435;46.186;9.024;2023-05-24T09:57:15;6.75;;;2.63;;
57609;SDS011;43435;46.186;9.024;2023-05-24T09:59:41;6.90;;;2.78;;
57609;SDS011;43435;46.186;9.024;2023-05-24T10:02:07;4.47;;;2.55;;
57609;SDS011;43435;46.186;9.024;2023-05-24T10:04:34;8.88;;;3.03;;
57609;SDS011;43435;46.186;9.024;2023-05-24T10:06:59;3.90;;;2.42;;
57609;SDS011;43435;46.186;9.024;2023-05-24T10:09:27;4.28;;;2.63;;
57609;SDS011;43435;46.186;9.024;2023-05-24T10:11:57;10.18;;;2.83;;
57609;SDS011;43435;46.186;9.024;2023-05-24T10:14:23;5.20;;;2.30;;
57609;SDS011;43435;46.186;9.024;2023-05-24T10:16:49;4.00;;;2.47;;
57609;SDS011;43435;46.186;9.024;2023-05-24T10:19:14;4.57;;;2.63;;
57609;SDS011;43435;46.186;9.024;2023-05-24T10:21:40;4.57;;;2.55;;
57609;SDS011;43435;46.186;9.024;2023-05-24T10:24:06;4.10;;;2.33;;
57609;SDS011;43435;46.186;9.024;2023-05-24T10:26:33;4.05;;;2.35;;
57609;SDS011;43435;46.186;9.024;2023-05-24T10:29:03;4.53;;;2.42;;
57609;SDS011;43435;46.186;9.024;2023-05-24T10:31:31;4.47;;;2.15;;
57609;SDS011;43435;46.186;9.024;2023-05-24T10:33:58;3.90;;;2.35;;
57609;SDS011;43435;46.186;9.024;2023-05-24T10:36:24;8.25;;;2.67;;
57609;SDS011;43435;46.186;9.024;2023-05-24T10:38:50;6.82;;;2.60;;
57609;SDS011;43435;46.186;9.024;2023-05-24T10:41:16;6.55;;;2.78;;
57609;SDS011;43435;46.186;9.024;2023-05-24T10:43:41;5.68;;;2.90;;
57609;SDS011;43435;46.186;9.024;2023-05-24T10:46:09;3.10;;;2.30;;
57609;SDS011;43435;46.186;9.024;2023-05-24T10:48:35;6.93;;;2.70;;
57609;SDS011;43435;46.186;9.024;2023-05-24T10:51:26;4.18;;;2.50;;
57609;SDS011;43435;46.186;9.024;2023-05-24T10:53:46;3.10;;;2.22;;
57609;SDS011;43435;46.186;9.024;2023-05-24T10:56:13;2.67;;;2.15;;
57609;SDS011;43435;46.186;9.024;2023-05-24T10:58:43;3.38;;;2.35;;
57609;SDS011;43435;46.186;9.024;2023-05-24T11:01:13;4.78;;;2.53;;
57609;SDS011;43435;46.186;9.024;2023-05-24T11:03:42;5.20;;;2.17;;
57609;SDS011;43435;46.186;9.024;2023-05-24T11:06:07;4.60;;;2.45;;
57609;SDS011;43435;46.186;9.024;2023-05-24T11:08:34;5.93;;;2.42;;
57609;SDS011;43435;46.186;9.024;2023-05-24T11:11:09;6.10;;;2.60;;
57609;SDS011;43435;46.186;9.024;2023-05-24T11:13:35;5.72;;;2.20;;
57609;SDS011;43435;46.186;9.024;2023-05-24T11:16:00;3.63;;;2.35;;
57609;SDS011;43435;46.186;9.024;2023-05-24T11:18:26;4.05;;;2.42;;
57609;SDS011;43435;46.186;9.024;2023-05-24T11:20:51;10.88;;;2.50;;
57609;SDS011;43435;46.186;9.024;2023-05-24T11:23:16;3.73;;;2.60;;
57609;SDS011;43435;46.186;9.024;2023-05-24T11:25:42;4.97;;;3.05;;
57609;SDS011;43435;46.186;9.024;2023-05-24T11:28:08;4.88;;;2.65;;
57609;SDS011;43435;46.186;9.024;2023-05-24T11:30:41;6.38;;;3.03;;
57609;SDS011;43435;46.186;9.024;2023-05-24T11:33:16;5.18;;;2.97;;
57609;SDS011;43435;46.186;9.024;2023-05-24T11:35:42;8.43;;;3.00;;
57609;SDS011;43435;46.186;9.024;2023-05-24T11:38:08;3.83;;;2.80;;
57609;SDS011;43435;46.186;9.024;2023-05-24T11:40:35;5.72;;;3.00;;
57609;SDS011;43435;46.186;9.024;2023-05-24T11:43:04;4.68;;;2.83;;
57609;SDS011;43435;46.186;9.024;2023-05-24T11:45:29;4.40;;;3.05;;
57609;SDS011;43435;46.186;9.024;2023-05-24T11:47:56;5.22;;;3.13;;
57609;SDS011;43435;46.186;9.024;2023-05-24T11:50:24;4.90;;;2.90;;
57609;SDS011;43435;46.186;9.024;2023-05-24T11:52:50;5.32;;;3.03;;
57609;SDS011;43435;46.186;9.024;2023-05-24T11:55:22;4.30;;;2.83;;
57609;SDS011;43435;46.186;9.024;2023-05-24T11:57:48;3.45;;;2.50;;
57609;SDS011;43435;46.186;9.024;2023-05-24T12:00:22;4.47;;;2.78;;
57609;SDS011;43435;46.186;9.024;2023-05-24T12:02:48;4.82;;;2.78;;
57609;SDS011;43435;46.186;9.024;2023-05-24T12:05:13;4.38;;;2.72;;
57609;SDS011;43435;46.186;9.024;2023-05-24T12:07:42;4.55;;;2.88;;
57609;SDS011;43435;46.186;9.024;2023-05-24T12:10:12;3.47;;;2.40;;
57609;SDS011;43435;46.186;9.024;2023-05-24T12:12:41;3.80;;;2.47;;
57609;SDS011;43435;46.186;9.024;2023-05-24T12:15:07;4.75;;;2.70;;
57609;SDS011;43435;46.186;9.024;2023-05-24T12:17:32;4.95;;;2.60;;
57609;SDS011;43435;46.186;9.024;2023-05-24T12:19:57;3.75;;;2.63;;
57609;SDS011;43435;46.186;9.024;2023-05-24T12:22:25;7.03;;;3.10;;
57609;SDS011;43435;46.186;9.024;2023-05-24T12:24:51;7.15;;;2.97;;
57609;SDS011;43435;46.186;9.024;2023-05-24T12:27:16;6.45;;;2.83;;
57609;SDS011;43435;46.186;9.024;2023-05-24T12:29:41;4.70;;;2.73;;
57609;SDS011;43435;46.186;9.024;2023-05-24T12:32:08;4.65;;;2.65;;
57609;SDS011;43435;46.186;9.024;2023-05-24T12:34:36;7.47;;;3.10;;
57609;SDS011;43435;46.186;9.024;2023-05-24T12:37:02;5.43;;;2.88;;
57609;SDS011;43435;46.186;9.024;2023-05-24T12:39:28;6.47;;;3.67;;
57609;SDS011;43435;46.186;9.024;2023-05-24T12:41:58;4.45;;;2.30;;
57609;SDS011;43435;46.186;9.024;2023-05-24T12:44:23;4.60;;;2.45;;
57609;SDS011;43435;46.186;9.024;2023-05-24T12:46:50;3.58;;;2.53;;
57609;SDS011;43435;46.186;9.024;2023-05-24T12:49:18;8.35;;;3.72;;
57609;SDS011;43435;46.186;9.024;2023-05-24T12:51:43;6.15;;;2.92;;
57609;SDS011;43435;46.186;9.024;2023-05-24T12:54:11;5.65;;;3.70;;
57609;SDS011;43435;46.186;9.024;2023-05-24T12:56:37;4.28;;;2.45;;
57609;SDS011;43435;46.186;9.024;2023-05-24T12:59:02;4.73;;;3.07;;
57609;SDS011;43435;46.186;9.024;2023-05-24T13:01:28;5.93;;;3.20;;
57609;SDS011;43435;46.186;9.024;2023-05-24T13:03:53;4.03;;;2.80;;
57609;SDS011;43435;46.186;9.024;2023-05-24T13:06:18;4.67;;;3.20;;
57609;SDS011;43435;46.186;9.024;2023-05-24T13:08:44;6.40;;;3.15;;
57609;SDS011;43435;46.186;9.024;2023-05-24T13:11:09;6.63;;;3.00;;
57609;SDS011;43435;46.186;9.024;2023-05-24T13:13:35;4.55;;;3.15;;
57609;SDS011;43435;46.186;9.024;2023-05-24T13:16:00;3.63;;;2.58;;
57609;SDS011;43435;46.186;9.024;2023-05-24T13:18:25;5.60;;;3.40;;
57609;SDS011;43435;46.186;9.024;2023-05-24T13:20:51;5.63;;;2.50;;
57609;SDS011;43435;46.186;9.024;2023-05-24T13:23:16;6.57;;;3.35;;
57609;SDS011;43435;46.186;9.024;2023-05-24T13:25:42;5.30;;;2.95;;
57609;SDS011;43435;46.186;9.024;2023-05-24T13:28:07;5.63;;;2.83;;
57609;SDS011;43435;46.186;9.024;2023-05-24T13:30:33;4.90;;;2.58;;
57609;SDS011;43435;46.186;9.024;2023-05-24T13:32:58;7.05;;;3.28;;
57609;SDS011;43435;46.186;9.024;2023-05-24T13:35:23;5.33;;;2.60;;
57609;SDS011;43435;46.186;9.024;2023-05-24T13:37:49;3.50;;;2.33;;
57609;SDS011;43435;46.186;9.024;2023-05-24T13:40:16;5.93;;;2.63;;
57609;SDS011;43435;46.186;9.024;2023-05-24T13:42:41;3.60;;;2.47;;
57609;SDS011;43435;46.186;9.024;2023-05-24T13:45:07;6.07;;;2.80;;
57609;SDS011;43435;46.186;9.024;2023-05-24T13:47:32;3.97;;;2.95;;
57609;SDS011;43435;46.186;9.024;2023-05-24T13:49:57;6.17;;;2.50;;
57609;SDS011;43435;46.186;9.024;2023-05-24T13:52:23;4.57;;;2.83;;
57609;SDS011;43435;46.186;9.024;2023-05-24T13:54:48;5.70;;;2.70;;
57609;SDS011;43435;46.186;9.024;2023-05-24T13:57:15;4.95;;;3.03;;
57609;SDS011;43435;46.186;9.024;2023-05-24T13:59:40;4.30;;;2.87;;
57609;SDS011;43435;46.186;9.024;2023-05-24T14:02:05;5.53;;;3.42;;
57609;SDS011;43435;46.186;9.024;2023-05-24T14:04:31;5.40;;;3.10;;
57609;SDS011;43435;46.186;9.024;2023-05-24T14:06:56;6.10;;;3.30;;
57609;SDS011;43435;46.186;9.024;2023-05-24T14:09:21;9.07;;;3.30;;
57609;SDS011;43435;46.186;9.024;2023-05-24T14:11:47;6.35;;;3.53;;
57609;SDS011;43435;46.186;9.024;2023-05-24T14:14:12;6.60;;;3.23;;
57609;SDS011;43435;46.186;9.024;2023-05-24T14:16:37;6.23;;;2.70;;
57609;SDS011;43435;46.186;9.024;2023-05-24T14:19:03;2.93;;;2.30;;
57609;SDS011;43435;46.186;9.024;2023-05-24T14:21:28;4.73;;;3.07;;
57609;SDS011;43435;46.186;9.024;2023-05-24T14:23:53;6.90;;;3.93;;
57609;SDS011;43435;46.186;9.024;2023-05-24T14:26:18;5.33;;;3.60;;
57609;SDS011;43435;46.186;9.024;2023-05-24T14:28:45;4.85;;;3.10;;
57609;SDS011;43435;46.186;9.024;2023-05-24T14:31:11;4.15;;;2.92;;
57609;SDS011;43435;46.186;9.024;2023-05-24T14:33:36;6.03;;;2.77;;
57609;SDS011;43435;46.186;9.024;2023-05-24T14:36:02;3.35;;;2.55;;
57609;SDS011;43435;46.186;9.024;2023-05-24T14:38:27;3.97;;;2.63;;
57609;SDS011;43435;46.186;9.024;2023-05-24T14:40:52;4.20;;;2.50;;
57609;SDS011;43435;46.186;9.024;2023-05-24T14:43:18;5.82;;;2.83;;
57609;SDS011;43435;46.186;9.024;2023-05-24T14:45:43;3.87;;;2.60;;
57609;SDS011;43435;46.186;9.024;2023-05-24T14:48:09;4.83;;;2.50;;
57609;SDS011;43435;46.186;9.024;2023-05-24T14:50:35;4.22;;;2.67;;
57609;SDS011;43435;46.186;9.024;2023-05-24T14:53:00;4.78;;;2.67;;
57609;SDS011;43435;46.186;9.024;2023-05-24T14:55:32;4.20;;;2.85;;
57609;SDS011;43435;46.186;9.024;2023-05-24T14:57:58;4.40;;;2.80;;
57609;SDS011;43435;46.186;9.024;2023-05-24T15:00:24;6.07;;;2.97;;
57609;SDS011;43435;46.186;9.024;2023-05-24T15:02:50;6.75;;;2.55;;
57609;SDS011;43435;46.186;9.024;2023-05-24T15:05:15;5.47;;;2.75;;
57609;SDS011;43435;46.186;9.024;2023-05-24T15:07:41;4.88;;;2.90;;
57609;SDS011;43435;46.186;9.024;2023-05-24T15:10:06;3.75;;;2.65;;
57609;SDS011;43435;46.186;9.024;2023-05-24T15:12:32;6.13;;;2.90;;
57609;SDS011;43435;46.186;9.024;2023-05-24T15:15:00;3.67;;;2.67;;
57609;SDS011;43435;46.186;9.024;2023-05-24T15:17:26;4.72;;;2.85;;
57609;SDS011;43435;46.186;9.024;2023-05-24T15:19:51;5.28;;;2.60;;
57609;SDS011;43435;46.186;9.024;2023-05-24T15:22:18;3.17;;;2.28;;
57609;SDS011;43435;46.186;9.024;2023-05-24T15:24:43;3.17;;;2.33;;
57609;SDS011;43435;46.186;9.024;2023-05-24T15:27:09;4.13;;;2.28;;
57609;SDS011;43435;46.186;9.024;2023-05-24T15:29:34;4.43;;;2.50;;
57609;SDS011;43435;46.186;9.024;2023-05-24T15:32:00;5.03;;;2.58;;
57609;SDS011;43435;46.186;9.024;2023-05-24T15:34:26;4.38;;;2.20;;
57609;SDS011;43435;46.186;9.024;2023-05-24T15:36:51;3.88;;;2.10;;
57609;SDS011;43435;46.186;9.024;2023-05-24T15:39:16;3.33;;;2.25;;
57609;SDS011;43435;46.186;9.024;2023-05-24T15:41:42;3.78;;;2.20;;
57609;SDS011;43435;46.186;9.024;2023-05-24T15:44:08;4.10;;;2.10;;
57609;SDS011;43435;46.186;9.024;2023-05-24T15:46:33;7.82;;;1.77;;
57609;SDS011;43435;46.186;9.024;2023-05-24T15:49:00;2.67;;;1.70;;
57609;SDS011;43435;46.186;9.024;2023-05-24T15:51:25;3.10;;;1.97;;
57609;SDS011;43435;46.186;9.024;2023-05-24T15:53:51;3.05;;;2.00;;
57609;SDS011;43435;46.186;9.024;2023-05-24T15:56:16;3.85;;;2.20;;
57609;SDS011;43435;46.186;9.024;2023-05-24T15:58:41;6.15;;;2.40;;
57609;SDS011;43435;46.186;9.024;2023-05-24T16:01:06;2.75;;;1.85;;
57609;SDS011;43435;46.186;9.024;2023-05-24T16:03:31;3.30;;;2.03;;
57609;SDS011;43435;46.186;9.024;2023-05-24T16:05:57;3.70;;;2.37;;
57609;SDS011;43435;46.186;9.024;2023-05-24T16:08:22;3.10;;;2.00;;
57609;SDS011;43435;46.186;9.024;2023-05-24T16:10:51;3.72;;;2.40;;
57609;SDS011;43435;46.186;9.024;2023-05-24T16:13:16;3.92;;;2.35;;
57609;SDS011;43435;46.186;9.024;2023-05-24T16:15:42;2.20;;;1.50;;
57609;SDS011;43435;46.186;9.024;2023-05-24T16:18:11;3.05;;;1.92;;
57609;SDS011;43435;46.186;9.024;2023-05-24T16:20:41;5.00;;;1.67;;
57609;SDS011;43435;46.186;9.024;2023-05-24T16:23:07;2.93;;;2.03;;
57609;SDS011;43435;46.186;9.024;2023-05-24T16:25:32;4.17;;;1.57;;
57609;SDS011;43435;46.186;9.024;2023-05-24T16:27:57;2.53;;;1.40;;
57609;SDS011;43435;46.186;9.024;2023-05-24T16:30:24;2.47;;;1.60;;
57609;SDS011;43435;46.186;9.024;2023-05-24T16:32:50;1.98;;;1.27;;
57609;SDS011;43435;46.186;9.024;2023-05-24T16:35:15;4.73;;;1.50;;
57609;SDS011;43435;46.186;9.024;2023-05-24T16:37:40;2.00;;;1.40;;
57609;SDS011;43435;46.186;9.024;2023-05-24T16:40:06;2.20;;;1.43;;
57609;SDS011;43435;46.186;9.024;2023-05-24T16:42:31;2.47;;;1.52;;
57609;SDS011;43435;46.186;9.024;2023-05-24T16:44:56;2.87;;;1.57;;
57609;SDS011;43435;46.186;9.024;2023-05-24T16:47:22;2.30;;;1.30;;
57609;SDS011;43435;46.186;9.024;2023-05-24T16:49:47;2.60;;;1.60;;
57609;SDS011;43435;46.186;9.024;2023-05-24T16:52:12;5.70;;;1.33;;
57609;SDS011;43435;46.186;9.024;2023-05-24T16:54:37;2.57;;;1.13;;
57609;SDS011;43435;46.186;9.024;2023-05-24T16:57:02;1.93;;;1.17;;
57609;SDS011;43435;46.186;9.024;2023-05-24T16:59:28;2.97;;;1.60;;
57609;SDS011;43435;46.186;9.024;2023-05-24T17:01:53;2.43;;;1.40;;
57609;SDS011;43435;46.186;9.024;2023-05-24T17:04:18;2.07;;;1.27;;
57609;SDS011;43435;46.186;9.024;2023-05-24T17:06:43;2.20;;;1.30;;
57609;SDS011;43435;46.186;9.024;2023-05-24T17:09:08;2.25;;;1.25;;
57609;SDS011;43435;46.186;9.024;2023-05-24T17:11:34;2.40;;;1.43;;
57609;SDS011;43435;46.186;9.024;2023-05-24T17:13:59;2.20;;;1.40;;
57609;SDS011;43435;46.186;9.024;2023-05-24T17:16:24;4.00;;;1.80;;
57609;SDS011;43435;46.186;9.024;2023-05-24T17:18:52;3.42;;;1.42;;
57609;SDS011;43435;46.186;9.024;2023-05-24T17:21:17;2.80;;;1.52;;
57609;SDS011;43435;46.186;9.024;2023-05-24T17:23:42;2.50;;;1.23;;
57609;SDS011;43435;46.186;9.024;2023-05-24T17:26:08;2.20;;;1.10;;
57609;SDS011;43435;46.186;9.024;2023-05-24T17:28:33;1.98;;;1.20;;
57609;SDS011;43435;46.186;9.024;2023-05-24T17:30:59;2.88;;;1.17;;
57609;SDS011;43435;46.186;9.024;2023-05-24T17:33:26;2.03;;;1.30;;
57609;SDS011;43435;46.186;9.024;2023-05-24T17:35:51;1.92;;;1.20;;
57609;SDS011;43435;46.186;9.024;2023-05-24T18:19:40;4.40;;;1.98;;
57609;SDS011;43435;46.186;9.024;2023-05-24T18:22:05;3.47;;;1.67;;
57609;SDS011;43435;46.186;9.024;2023-05-24T18:24:31;7.15;;;3.45;;
57609;SDS011;43435;46.186;9.024;2023-05-24T18:26:56;5.87;;;2.87;;
57609;SDS011;43435;46.186;9.024;2023-05-24T18:29:24;2.77;;;1.73;;
57609;SDS011;43435;46.186;9.024;2023-05-24T18:31:50;2.75;;;1.90;;
57609;SDS011;43435;46.186;9.024;2023-05-24T18:34:15;3.45;;;1.95;;
57609;SDS011;43435;46.186;9.024;2023-05-24T18:36:43;6.10;;;2.53;;
57609;SDS011;43435;46.186;9.024;2023-05-24T18:39:08;8.27;;;1.90;;
57609;SDS011;43435;46.186;9.024;2023-05-24T18:41:43;5.75;;;2.42;;
57609;SDS011;43435;46.186;9.024;2023-05-24T18:44:10;6.60;;;2.95;;
57609;SDS011;43435;46.186;9.024;2023-05-24T18:46:45;4.50;;;2.92;;
57609;SDS011;43435;46.186;9.024;2023-05-24T18:49:10;3.70;;;1.98;;
57609;SDS011;43435;46.186;9.024;2023-05-24T18:51:36;4.10;;;1.83;;
57609;SDS011;43435;46.186;9.024;2023-05-24T18:54:01;4.63;;;2.28;;
57609;SDS011;43435;46.186;9.024;2023-05-24T18:56:27;5.33;;;2.17;;
57609;SDS011;43435;46.186;9.024;2023-05-24T18:58:52;3.93;;;2.27;;
57609;SDS011;43435;46.186;9.024;2023-05-24T19:01:18;3.47;;;2.10;;
57609;SDS011;43435;46.186;9.024;2023-05-24T19:03:43;6.97;;;2.35;;
57609;SDS011;43435;46.186;9.024;2023-05-24T19:06:08;5.20;;;2.00;;
57609;SDS011;43435;46.186;9.024;2023-05-24T19:08:34;4.80;;;1.80;;
57609;SDS011;43435;46.186;9.024;2023-05-24T19:11:02;4.07;;;2.30;;
57609;SDS011;43435;46.186;9.024;2023-05-24T19:13:28;14.57;;;5.57;;
57609;SDS011;43435;46.186;9.024;2023-05-24T19:15:54;10.05;;;3.17;;
57609;SDS011;43435;46.186;9.024;2023-05-24T19:18:19;7.22;;;2.95;;
57609;SDS011;43435;46.186;9.024;2023-05-24T19:20:45;4.70;;;2.22;;
57609;SDS011;43435;46.186;9.024;2023-05-24T19:23:10;8.53;;;1.83;;
57609;SDS011;43435;46.186;9.024;2023-05-24T19:25:36;4.28;;;2.53;;
57609;SDS011;43435;46.186;9.024;2023-05-24T19:28:04;5.57;;;2.53;;
57609;SDS011;43435;46.186;9.024;2023-05-24T19:30:29;5.75;;;2.47;;
57609;SDS011;43435;46.186;9.024;2023-05-24T19:32:54;4.50;;;2.20;;
57609;SDS011;43435;46.186;9.024;2023-05-24T19:35:19;6.37;;;2.33;;
57609;SDS011;43435;46.186;9.024;2023-05-24T19:37:45;3.05;;;1.85;;
57609;SDS011;43435;46.186;9.024;2023-05-24T19:40:10;6.27;;;2.43;;
57609;SDS011;43435;46.186;9.024;2023-05-24T19:42:35;3.83;;;2.47;;
57609;SDS011;43435;46.186;9.024;2023-05-24T19:45:01;5.88;;;2.10;;
57609;SDS011;43435;46.186;9.024;2023-05-24T19:47:26;4.63;;;2.20;;
57609;SDS011;43435;46.186;9.024;2023-05-24T19:49:51;4.07;;;2.33;;
57609;SDS011;43435;46.186;9.024;2023-05-24T19:52:16;3.97;;;1.93;;
57609;SDS011;43435;46.186;9.024;2023-05-24T19:54:44;5.13;;;2.33;;
57609;SDS011;43435;46.186;9.024;2023-05-24T19:57:09;6.65;;;2.83;;
57609;SDS011;43435;46.186;9.024;2023-05-24T19:59:34;5.90;;;2.40;;
57609;SDS011;43435;46.186;9.024;2023-05-24T20:02:00;6.40;;;3.70;;
57609;SDS011;43435;46.186;9.024;2023-05-24T20:04:25;5.83;;;3.47;;
57609;SDS011;43435;46.186;9.024;2023-05-24T20:06:56;3.67;;;2.23;;
57609;SDS011;43435;46.186;9.024;2023-05-24T20:09:28;4.05;;;2.40;;
57609;SDS011;43435;46.186;9.024;2023-05-24T20:11:53;4.07;;;2.47;;
57609;SDS011;43435;46.186;9.024;2023-05-24T20:14:18;3.77;;;2.17;;
57609;SDS011;43435;46.186;9.024;2023-05-24T20:16:44;6.97;;;2.35;;
57609;SDS011;43435;46.186;9.024;2023-05-24T20:19:09;6.82;;;2.30;;
57609;SDS011;43435;46.186;9.024;2023-05-24T20:21:35;5.05;;;1.90;;
57609;SDS011;43435;46.186;9.024;2023-05-24T20:24:01;4.53;;;2.30;;
57609;SDS011;43435;46.186;9.024;2023-05-24T20:26:26;3.50;;;1.50;;
57609;SDS011;43435;46.186;9.024;2023-05-24T20:28:51;3.70;;;2.00;;
57609;SDS011;43435;46.186;9.024;2023-05-24T20:31:16;5.63;;;2.23;;
57609;SDS011;43435;46.186;9.024;2023-05-24T20:33:42;4.18;;;2.10;;
57609;SDS011;43435;46.186;9.024;2023-05-24T20:36:07;8.43;;;2.67;;
57609;SDS011;43435;46.186;9.024;2023-05-24T20:38:32;4.43;;;2.60;;
57609;SDS011;43435;46.186;9.024;2023-05-24T20:40:57;4.32;;;2.20;;
57609;SDS011;43435;46.186;9.024;2023-05-24T20:43:23;3.92;;;1.95;;
57609;SDS011;43435;46.186;9.024;2023-05-24T20:45:49;7.40;;;2.03;;
57609;SDS011;43435;46.186;9.024;2023-05-24T20:48:14;5.07;;;2.70;;
57609;SDS011;43435;46.186;9.024;2023-05-24T20:50:39;5.53;;;3.07;;
57609;SDS011;43435;46.186;9.024;2023-05-24T20:53:04;4.95;;;2.38;;
57609;SDS011;43435;46.186;9.024;2023-05-24T20:55:30;5.07;;;2.42;;
57609;SDS011;43435;46.186;9.024;2023-05-24T20:57:55;4.60;;;2.13;;
57609;SDS011;43435;46.186;9.024;2023-05-24T21:00:20;5.60;;;2.80;;
57609;SDS011;43435;46.186;9.024;2023-05-24T21:02:45;3.97;;;2.00;;
57609;SDS011;43435;46.186;9.024;2023-05-24T21:05:11;5.63;;;2.20;;
57609;SDS011;43435;46.186;9.024;2023-05-24T21:07:36;4.10;;;1.53;;
57609;SDS011;43435;46.186;9.024;2023-05-24T21:10:01;4.83;;;1.93;;
57609;SDS011;43435;46.186;9.024;2023-05-24T21:12:28;2.37;;;1.63;;
57609;SDS011;43435;46.186;9.024;2023-05-24T21:14:53;4.25;;;2.08;;
57609;SDS011;43435;46.186;9.024;2023-05-24T21:17:18;7.40;;;2.70;;
57609;SDS011;43435;46.186;9.024;2023-05-24T21:19:44;4.57;;;2.00;;
57609;SDS011;43435;46.186;9.024;2023-05-24T21:22:09;4.75;;;2.10;;
57609;SDS011;43435;46.186;9.024;2023-05-24T21:24:34;7.63;;;3.13;;
57609;SDS011;43435;46.186;9.024;2023-05-24T21:26:59;5.03;;;1.90;;
57609;SDS011;43435;46.186;9.024;2023-05-24T21:29:25;3.85;;;1.95;;
57609;SDS011;43435;46.186;9.024;2023-05-24T21:31:50;5.87;;;2.37;;
57609;SDS011;43435;46.186;9.024;2023-05-24T21:34:16;5.37;;;2.40;;
57609;SDS011;43435;46.186;9.024;2023-05-24T21:36:41;3.90;;;2.47;;
57609;SDS011;43435;46.186;9.024;2023-05-24T21:39:06;4.57;;;2.47;;
57609;SDS011;43435;46.186;9.024;2023-05-24T21:41:32;6.80;;;2.55;;
57609;SDS011;43435;46.186;9.024;2023-05-24T21:43:58;8.93;;;3.00;;
57609;SDS011;43435;46.186;9.024;2023-05-24T21:46:23;5.13;;;2.20;;
57609;SDS011;43435;46.186;9.024;2023-05-24T21:48:48;6.07;;;2.17;;
57609;SDS011;43435;46.186;9.024;2023-05-24T21:51:14;4.70;;;2.00;;
57609;SDS011;43435;46.186;9.024;2023-05-24T21:53:39;4.45;;;1.60;;
57609;SDS011;43435;46.186;9.024;2023-05-24T21:56:04;3.43;;;1.60;;
57609;SDS011;43435;46.186;9.024;2023-05-24T21:58:30;3.15;;;1.60;;
57609;SDS011;43435;46.186;9.024;2023-05-24T22:00:55;4.00;;;1.20;;
57609;SDS011;43435;46.186;9.024;2023-05-24T22:03:20;3.23;;;1.27;;
57609;SDS011;43435;46.186;9.024;2023-05-24T22:05:45;3.77;;;1.17;;
57609;SDS011;43435;46.186;9.024;2023-05-24T22:08:10;1.70;;;1.20;;
57609;SDS011;43435;46.186;9.024;2023-05-24T22:10:36;2.73;;;1.50;;
57609;SDS011;43435;46.186;9.024;2023-05-24T22:13:01;3.20;;;1.10;;
57609;SDS011;43435;46.186;9.024;2023-05-24T22:15:26;7.73;;;1.83;;
57609;SDS011;43435;46.186;9.024;2023-05-24T22:17:52;2.47;;;1.10;;
57609;SDS011;43435;46.186;9.024;2023-05-24T22:20:22;2.33;;;1.38;;
57609;SDS011;43435;46.186;9.024;2023-05-24T22:22:47;6.47;;;1.80;;
57609;SDS011;43435;46.186;9.024;2023-05-24T22:25:15;5.13;;;1.30;;
57609;SDS011;43435;46.186;9.024;2023-05-24T22:27:45;2.22;;;1.10;;
57609;SDS011;43435;46.186;9.024;2023-05-24T22:30:10;2.38;;;1.20;;
57609;SDS011;43435;46.186;9.024;2023-05-24T22:32:36;3.70;;;1.00;;
